sensor_id;sensor_type;location;lat;lon;timestamp;temperature;humidity
75961;SHT30;64644;48.914;2.254;2023-10-31T00:00:49;13.31;74.83
75961;SHT30;64644;48.914;2.254;2023-10-31T00:03:15;13.31;74.87
75961;SHT30;64644;48.914;2.254;2023-10-31T00:05:41;13.33;74.83
75961;SHT30;64644;48.914;2.254;2023-10-31T00:08:06;13.30;74.79
75961;SHT30;64644;48.914;2.254;2023-10-31T00:10:32;13.33;74.74
75961;SHT30;64644;48.914;2.254;2023-10-31T00:12:57;13.31;74.71
75961;SHT30;64644;48.914;2.254;2023-10-31T00:15:22;13.27;74.61
75961;SHT30;64644;48.914;2.254;2023-10-31T00:17:49;13.28;74.61
75961;SHT30;64644;48.914;2.254;2023-10-31T00:20:15;13.26;74.59
75961;SHT30;64644;48.914;2.254;2023-10-31T00:22:40;13.27;74.58
75961;SHT30;64644;48.914;2.254;2023-10-31T00:25:06;13.26;74.60
75961;SHT30;64644;48.914;2.254;2023-10-31T00:27:31;13.26;74.58
75961;SHT30;64644;48.914;2.254;2023-10-31T00:29:57;13.24;74.54
75961;SHT30;64644;48.914;2.254;2023-10-31T00:32:22;13.26;74.54
75961;SHT30;64644;48.914;2.254;2023-10-31T00:34:47;13.23;74.51
75961;SHT30;64644;48.914;2.254;2023-10-31T00:37:12;13.23;74.54
75961;SHT30;64644;48.914;2.254;2023-10-31T00:39:38;13.19;74.53
75961;SHT30;64644;48.914;2.254;2023-10-31T00:42:03;13.19;74.53
75961;SHT30;64644;48.914;2.254;2023-10-31T00:44:28;13.17;74.54
75961;SHT30;64644;48.914;2.254;2023-10-31T00:46:54;13.17;74.56
75961;SHT30;64644;48.914;2.254;2023-10-31T00:49:19;13.14;74.57
75961;SHT30;64644;48.914;2.254;2023-10-31T00:51:45;13.16;74.57
75961;SHT30;64644;48.914;2.254;2023-10-31T00:54:10;13.13;74.54
75961;SHT30;64644;48.914;2.254;2023-10-31T00:56:35;13.13;74.55
75961;SHT30;64644;48.914;2.254;2023-10-31T00:59:01;13.14;74.55
75961;SHT30;64644;48.914;2.254;2023-10-31T01:01:26;13.11;74.56
75961;SHT30;64644;48.914;2.254;2023-10-31T01:03:52;13.13;74.54
75961;SHT30;64644;48.914;2.254;2023-10-31T01:06:17;13.11;74.55
75961;SHT30;64644;48.914;2.254;2023-10-31T01:08:42;13.10;74.53
75961;SHT30;64644;48.914;2.254;2023-10-31T01:11:08;13.06;74.55
75961;SHT30;64644;48.914;2.254;2023-10-31T01:13:33;13.03;74.54
75961;SHT30;64644;48.914;2.254;2023-10-31T01:15:58;13.04;74.56
75961;SHT30;64644;48.914;2.254;2023-10-31T01:18:24;13.00;74.52
75961;SHT30;64644;48.914;2.254;2023-10-31T01:20:49;13.00;74.51
75961;SHT30;64644;48.914;2.254;2023-10-31T01:23:14;13.02;74.55
75961;SHT30;64644;48.914;2.254;2023-10-31T01:25:40;13.00;74.59
75961;SHT30;64644;48.914;2.254;2023-10-31T01:28:05;13.00;74.60
75961;SHT30;64644;48.914;2.254;2023-10-31T01:30:32;13.02;74.68
75961;SHT30;64644;48.914;2.254;2023-10-31T01:32:57;12.99;74.71
75961;SHT30;64644;48.914;2.254;2023-10-31T01:35:22;13.00;74.72
75961;SHT30;64644;48.914;2.254;2023-10-31T01:37:48;13.00;74.73
75961;SHT30;64644;48.914;2.254;2023-10-31T01:40:13;13.00;74.72
75961;SHT30;64644;48.914;2.254;2023-10-31T01:42:38;13.02;74.76
75961;SHT30;64644;48.914;2.254;2023-10-31T01:45:04;13.00;74.76
75961;SHT30;64644;48.914;2.254;2023-10-31T01:47:30;13.00;74.76
75961;SHT30;64644;48.914;2.254;2023-10-31T01:49:55;13.00;74.76
75961;SHT30;64644;48.914;2.254;2023-10-31T01:52:21;13.03;74.71
75961;SHT30;64644;48.914;2.254;2023-10-31T01:54:46;13.06;74.66
75961;SHT30;64644;48.914;2.254;2023-10-31T01:57:12;13.04;74.59
75961;SHT30;64644;48.914;2.254;2023-10-31T01:59:39;13.06;74.56
75961;SHT30;64644;48.914;2.254;2023-10-31T02:02:05;13.06;74.57
75961;SHT30;64644;48.914;2.254;2023-10-31T02:04:30;13.04;74.57
75961;SHT30;64644;48.914;2.254;2023-10-31T02:06:55;13.06;74.56
75961;SHT30;64644;48.914;2.254;2023-10-31T02:09:21;13.00;74.53
75961;SHT30;64644;48.914;2.254;2023-10-31T02:11:51;12.99;74.57
75961;SHT30;64644;48.914;2.254;2023-10-31T02:14:17;12.97;74.58
75961;SHT30;64644;48.914;2.254;2023-10-31T02:16:42;12.93;74.60
75961;SHT30;64644;48.914;2.254;2023-10-31T02:19:08;12.96;74.55
75961;SHT30;64644;48.914;2.254;2023-10-31T02:21:38;12.91;74.53
75961;SHT30;64644;48.914;2.254;2023-10-31T02:24:04;12.86;74.57
75961;SHT30;64644;48.914;2.254;2023-10-31T02:26:31;12.82;74.64
75961;SHT30;64644;48.914;2.254;2023-10-31T02:28:56;12.82;74.81
75961;SHT30;64644;48.914;2.254;2023-10-31T02:31:22;12.83;74.79
75961;SHT30;64644;48.914;2.254;2023-10-31T02:33:47;12.81;74.73
75961;SHT30;64644;48.914;2.254;2023-10-31T02:36:12;12.76;74.76
75961;SHT30;64644;48.914;2.254;2023-10-31T02:38:38;12.74;74.95
75961;SHT30;64644;48.914;2.254;2023-10-31T02:41:03;12.74;75.05
75961;SHT30;64644;48.914;2.254;2023-10-31T02:43:28;12.74;75.14
75961;SHT30;64644;48.914;2.254;2023-10-31T02:45:54;12.75;75.17
75961;SHT30;64644;48.914;2.254;2023-10-31T02:48:19;12.75;75.15
75961;SHT30;64644;48.914;2.254;2023-10-31T02:50:45;12.72;75.30
75961;SHT30;64644;48.914;2.254;2023-10-31T02:53:11;12.75;75.33
75961;SHT30;64644;48.914;2.254;2023-10-31T02:55:36;12.83;75.39
75961;SHT30;64644;48.914;2.254;2023-10-31T02:58:02;12.81;75.34
75961;SHT30;64644;48.914;2.254;2023-10-31T03:00:27;12.79;75.28
75961;SHT30;64644;48.914;2.254;2023-10-31T03:02:53;12.81;75.28
75961;SHT30;64644;48.914;2.254;2023-10-31T03:05:18;12.76;75.41
75961;SHT30;64644;48.914;2.254;2023-10-31T03:07:43;12.76;75.54
75961;SHT30;64644;48.914;2.254;2023-10-31T03:10:10;12.78;75.55
75961;SHT30;64644;48.914;2.254;2023-10-31T03:12:35;12.79;75.69
75961;SHT30;64644;48.914;2.254;2023-10-31T03:15:02;12.83;75.70
75961;SHT30;64644;48.914;2.254;2023-10-31T03:17:29;12.89;75.71
75961;SHT30;64644;48.914;2.254;2023-10-31T03:19:54;12.88;75.53
75961;SHT30;64644;48.914;2.254;2023-10-31T03:22:20;12.85;75.58
75961;SHT30;64644;48.914;2.254;2023-10-31T03:24:45;12.85;75.46
75961;SHT30;64644;48.914;2.254;2023-10-31T03:27:11;12.83;75.64
75961;SHT30;64644;48.914;2.254;2023-10-31T03:29:36;12.86;75.71
75961;SHT30;64644;48.914;2.254;2023-10-31T03:32:01;12.83;75.70
75961;SHT30;64644;48.914;2.254;2023-10-31T03:34:27;12.85;75.69
75961;SHT30;64644;48.914;2.254;2023-10-31T03:36:52;12.79;75.71
75961;SHT30;64644;48.914;2.254;2023-10-31T03:39:18;12.76;75.84
75961;SHT30;64644;48.914;2.254;2023-10-31T03:41:43;12.78;76.04
75961;SHT30;64644;48.914;2.254;2023-10-31T03:44:09;12.82;76.13
75961;SHT30;64644;48.914;2.254;2023-10-31T03:46:34;12.82;76.10
75961;SHT30;64644;48.914;2.254;2023-10-31T03:48:59;12.82;76.08
75961;SHT30;64644;48.914;2.254;2023-10-31T03:51:25;12.88;76.15
75961;SHT30;64644;48.914;2.254;2023-10-31T03:53:50;12.89;76.04
75961;SHT30;64644;48.914;2.254;2023-10-31T03:56:15;12.86;76.02
75961;SHT30;64644;48.914;2.254;2023-10-31T03:58:42;12.88;75.88
75961;SHT30;64644;48.914;2.254;2023-10-31T04:01:08;12.86;75.95
75961;SHT30;64644;48.914;2.254;2023-10-31T04:03:34;12.86;75.97
75961;SHT30;64644;48.914;2.254;2023-10-31T04:05:59;12.83;75.90
75961;SHT30;64644;48.914;2.254;2023-10-31T04:08:25;12.81;76.14
75961;SHT30;64644;48.914;2.254;2023-10-31T04:10:50;12.79;76.17
75961;SHT30;64644;48.914;2.254;2023-10-31T04:13:16;12.82;76.20
75961;SHT30;64644;48.914;2.254;2023-10-31T04:15:41;12.83;76.29
75961;SHT30;64644;48.914;2.254;2023-10-31T04:18:07;12.89;76.43
75961;SHT30;64644;48.914;2.254;2023-10-31T04:20:32;12.91;76.33
75961;SHT30;64644;48.914;2.254;2023-10-31T04:22:57;12.93;76.29
75961;SHT30;64644;48.914;2.254;2023-10-31T04:25:23;12.95;76.15
75961;SHT30;64644;48.914;2.254;2023-10-31T04:27:48;12.92;76.14
75961;SHT30;64644;48.914;2.254;2023-10-31T04:30:14;12.92;76.20
75961;SHT30;64644;48.914;2.254;2023-10-31T04:32:40;12.95;76.33
75961;SHT30;64644;48.914;2.254;2023-10-31T04:35:05;12.96;76.33
75961;SHT30;64644;48.914;2.254;2023-10-31T04:37:30;12.96;76.34
75961;SHT30;64644;48.914;2.254;2023-10-31T04:39:56;12.99;76.43
75961;SHT30;64644;48.914;2.254;2023-10-31T04:42:21;13.02;76.45
75961;SHT30;64644;48.914;2.254;2023-10-31T04:44:47;13.04;76.42
75961;SHT30;64644;48.914;2.254;2023-10-31T04:47:13;13.06;76.40
75961;SHT30;64644;48.914;2.254;2023-10-31T04:49:38;13.07;76.42
75961;SHT30;64644;48.914;2.254;2023-10-31T04:52:04;13.11;76.41
75961;SHT30;64644;48.914;2.254;2023-10-31T04:54:29;13.14;76.37
75961;SHT30;64644;48.914;2.254;2023-10-31T04:56:55;13.13;76.36
75961;SHT30;64644;48.914;2.254;2023-10-31T04:59:20;13.19;76.41
75961;SHT30;64644;48.914;2.254;2023-10-31T05:01:49;13.21;76.42
75961;SHT30;64644;48.914;2.254;2023-10-31T05:04:16;13.24;76.37
75961;SHT30;64644;48.914;2.254;2023-10-31T05:06:42;13.26;76.34
75961;SHT30;64644;48.914;2.254;2023-10-31T05:09:07;13.24;76.26
75961;SHT30;64644;48.914;2.254;2023-10-31T05:11:32;13.21;76.24
75961;SHT30;64644;48.914;2.254;2023-10-31T05:13:58;13.20;76.15
75961;SHT30;64644;48.914;2.254;2023-10-31T05:16:23;13.17;76.32
75961;SHT30;64644;48.914;2.254;2023-10-31T05:18:49;13.17;76.42
75961;SHT30;64644;48.914;2.254;2023-10-31T05:21:19;13.16;76.47
75961;SHT30;64644;48.914;2.254;2023-10-31T05:23:44;13.17;76.63
75961;SHT30;64644;48.914;2.254;2023-10-31T05:26:09;13.16;76.63
75961;SHT30;64644;48.914;2.254;2023-10-31T05:28:35;13.19;76.66
75961;SHT30;64644;48.914;2.254;2023-10-31T05:31:00;13.16;76.59
75961;SHT30;64644;48.914;2.254;2023-10-31T05:33:25;13.14;76.69
75961;SHT30;64644;48.914;2.254;2023-10-31T05:35:51;13.16;76.72
75961;SHT30;64644;48.914;2.254;2023-10-31T05:38:16;13.16;76.79
75961;SHT30;64644;48.914;2.254;2023-10-31T05:40:42;13.13;76.90
75961;SHT30;64644;48.914;2.254;2023-10-31T05:43:07;13.14;76.91
75961;SHT30;64644;48.914;2.254;2023-10-31T05:45:32;13.19;77.07
75961;SHT30;64644;48.914;2.254;2023-10-31T05:47:59;13.23;77.09
75961;SHT30;64644;48.914;2.254;2023-10-31T05:50:24;13.24;77.03
75961;SHT30;64644;48.914;2.254;2023-10-31T05:52:49;13.23;76.90
75961;SHT30;64644;48.914;2.254;2023-10-31T05:55:15;13.24;76.77
75961;SHT30;64644;48.914;2.254;2023-10-31T05:57:41;13.21;76.80
75961;SHT30;64644;48.914;2.254;2023-10-31T06:00:07;13.23;76.96
75961;SHT30;64644;48.914;2.254;2023-10-31T06:02:33;13.21;77.20
75961;SHT30;64644;48.914;2.254;2023-10-31T06:04:58;13.28;77.30
75961;SHT30;64644;48.914;2.254;2023-10-31T06:07:24;13.33;77.25
75961;SHT30;64644;48.914;2.254;2023-10-31T06:09:49;13.40;77.12
75961;SHT30;64644;48.914;2.254;2023-10-31T06:12:14;13.43;77.11
75961;SHT30;64644;48.914;2.254;2023-10-31T06:14:40;13.45;77.03
75961;SHT30;64644;48.914;2.254;2023-10-31T06:17:05;13.47;76.96
75961;SHT30;64644;48.914;2.254;2023-10-31T06:19:34;13.51;76.95
75961;SHT30;64644;48.914;2.254;2023-10-31T06:22:00;13.48;76.81
75961;SHT30;64644;48.914;2.254;2023-10-31T06:24:25;13.51;76.91
75961;SHT30;64644;48.914;2.254;2023-10-31T06:26:50;13.53;76.92
75961;SHT30;64644;48.914;2.254;2023-10-31T06:29:16;13.50;76.64
75961;SHT30;64644;48.914;2.254;2023-10-31T06:31:41;13.47;76.56
75961;SHT30;64644;48.914;2.254;2023-10-31T06:34:06;13.45;76.55
75961;SHT30;64644;48.914;2.254;2023-10-31T06:36:32;13.43;76.65
75961;SHT30;64644;48.914;2.254;2023-10-31T06:38:57;13.41;76.76
75961;SHT30;64644;48.914;2.254;2023-10-31T06:41:24;13.44;76.72
75961;SHT30;64644;48.914;2.254;2023-10-31T06:43:49;13.45;76.79
75961;SHT30;64644;48.914;2.254;2023-10-31T06:46:14;13.47;76.71
75961;SHT30;64644;48.914;2.254;2023-10-31T06:48:40;13.47;76.66
75961;SHT30;64644;48.914;2.254;2023-10-31T06:51:05;13.44;76.58
75961;SHT30;64644;48.914;2.254;2023-10-31T06:53:31;13.45;76.49
75961;SHT30;64644;48.914;2.254;2023-10-31T06:55:56;13.44;76.49
75961;SHT30;64644;48.914;2.254;2023-10-31T06:58:21;13.45;76.49
75961;SHT30;64644;48.914;2.254;2023-10-31T07:00:47;13.50;76.56
75961;SHT30;64644;48.914;2.254;2023-10-31T07:03:13;13.51;76.47
75961;SHT30;64644;48.914;2.254;2023-10-31T07:05:41;13.55;76.31
75961;SHT30;64644;48.914;2.254;2023-10-31T07:08:06;13.55;76.24
75961;SHT30;64644;48.914;2.254;2023-10-31T07:10:31;13.57;76.21
75961;SHT30;64644;48.914;2.254;2023-10-31T07:12:58;13.57;76.11
75961;SHT30;64644;48.914;2.254;2023-10-31T07:15:26;13.57;76.13
75961;SHT30;64644;48.914;2.254;2023-10-31T07:17:52;13.55;76.12
75961;SHT30;64644;48.914;2.254;2023-10-31T07:20:17;13.58;76.01
75961;SHT30;64644;48.914;2.254;2023-10-31T07:22:43;13.59;75.96
75961;SHT30;64644;48.914;2.254;2023-10-31T07:25:09;13.58;76.00
75961;SHT30;64644;48.914;2.254;2023-10-31T07:27:34;13.57;75.94
75961;SHT30;64644;48.914;2.254;2023-10-31T07:30:00;13.64;75.94
75961;SHT30;64644;48.914;2.254;2023-10-31T07:32:25;13.66;75.85
75961;SHT30;64644;48.914;2.254;2023-10-31T07:34:51;13.69;75.87
75961;SHT30;64644;48.914;2.254;2023-10-31T07:37:17;13.73;75.88
75961;SHT30;64644;48.914;2.254;2023-10-31T07:39:42;13.78;75.83
75961;SHT30;64644;48.914;2.254;2023-10-31T07:42:08;13.81;75.75
75961;SHT30;64644;48.914;2.254;2023-10-31T07:44:33;13.81;75.61
75961;SHT30;64644;48.914;2.254;2023-10-31T07:46:59;13.83;75.68
75961;SHT30;64644;48.914;2.254;2023-10-31T07:49:24;13.83;75.61
75961;SHT30;64644;48.914;2.254;2023-10-31T07:51:49;13.82;75.47
75961;SHT30;64644;48.914;2.254;2023-10-31T07:54:15;13.79;75.44
75961;SHT30;64644;48.914;2.254;2023-10-31T07:56:41;13.79;75.48
75961;SHT30;64644;48.914;2.254;2023-10-31T07:59:07;13.81;75.53
75961;SHT30;64644;48.914;2.254;2023-10-31T08:01:33;13.81;75.49
75961;SHT30;64644;48.914;2.254;2023-10-31T08:03:58;13.79;75.38
75961;SHT30;64644;48.914;2.254;2023-10-31T08:06:24;13.81;75.38
75961;SHT30;64644;48.914;2.254;2023-10-31T08:08:49;13.82;75.43
75961;SHT30;64644;48.914;2.254;2023-10-31T08:11:15;13.85;75.41
75961;SHT30;64644;48.914;2.254;2023-10-31T08:13:40;13.89;75.38
75961;SHT30;64644;48.914;2.254;2023-10-31T08:16:06;13.85;75.22
75961;SHT30;64644;48.914;2.254;2023-10-31T08:18:32;13.83;75.23
75961;SHT30;64644;48.914;2.254;2023-10-31T08:20:57;13.86;75.33
75961;SHT30;64644;48.914;2.254;2023-10-31T08:23:23;13.87;75.39
75961;SHT30;64644;48.914;2.254;2023-10-31T08:25:48;13.90;75.31
75961;SHT30;64644;48.914;2.254;2023-10-31T08:28:14;13.86;75.18
75961;SHT30;64644;48.914;2.254;2023-10-31T08:30:39;13.87;75.17
75961;SHT30;64644;48.914;2.254;2023-10-31T08:33:05;13.90;75.17
75961;SHT30;64644;48.914;2.254;2023-10-31T08:35:31;13.89;75.17
75961;SHT30;64644;48.914;2.254;2023-10-31T08:37:56;13.89;75.12
75961;SHT30;64644;48.914;2.254;2023-10-31T08:40:22;13.92;75.22
75961;SHT30;64644;48.914;2.254;2023-10-31T08:42:48;13.96;75.19
75961;SHT30;64644;48.914;2.254;2023-10-31T08:45:13;13.98;75.15
75961;SHT30;64644;48.914;2.254;2023-10-31T08:47:38;14.06;75.12
75961;SHT30;64644;48.914;2.254;2023-10-31T08:50:04;14.00;75.00
75961;SHT30;64644;48.914;2.254;2023-10-31T08:52:29;14.03;74.98
75961;SHT30;64644;48.914;2.254;2023-10-31T08:54:55;14.05;75.05
75961;SHT30;64644;48.914;2.254;2023-10-31T08:57:20;14.05;75.02
75961;SHT30;64644;48.914;2.254;2023-10-31T08:59:45;14.06;75.02
75961;SHT30;64644;48.914;2.254;2023-10-31T09:02:11;14.09;75.08
75961;SHT30;64644;48.914;2.254;2023-10-31T09:04:36;14.12;75.19
75961;SHT30;64644;48.914;2.254;2023-10-31T09:07:01;14.16;75.13
75961;SHT30;64644;48.914;2.254;2023-10-31T09:09:27;14.18;75.09
75961;SHT30;64644;48.914;2.254;2023-10-31T09:11:52;14.21;75.13
75961;SHT30;64644;48.914;2.254;2023-10-31T09:14:17;14.21;75.07
75961;SHT30;64644;48.914;2.254;2023-10-31T09:16:43;14.23;75.00
75961;SHT30;64644;48.914;2.254;2023-10-31T09:19:08;14.23;74.93
75961;SHT30;64644;48.914;2.254;2023-10-31T09:21:34;14.20;74.98
75961;SHT30;64644;48.914;2.254;2023-10-31T09:23:59;14.18;75.07
75961;SHT30;64644;48.914;2.254;2023-10-31T09:26:24;14.18;75.17
75961;SHT30;64644;48.914;2.254;2023-10-31T09:28:50;14.24;75.14
75961;SHT30;64644;48.914;2.254;2023-10-31T09:31:18;14.26;75.08
75961;SHT30;64644;48.914;2.254;2023-10-31T09:33:45;14.26;75.17
75961;SHT30;64644;48.914;2.254;2023-10-31T09:36:11;14.28;75.09
75961;SHT30;64644;48.914;2.254;2023-10-31T09:38:36;14.33;75.03
75961;SHT30;64644;48.914;2.254;2023-10-31T09:41:02;14.30;74.92
75961;SHT30;64644;48.914;2.254;2023-10-31T09:43:28;14.33;74.96
75961;SHT30;64644;48.914;2.254;2023-10-31T09:45:53;14.34;74.89
75961;SHT30;64644;48.914;2.254;2023-10-31T09:48:19;14.35;74.82
75961;SHT30;64644;48.914;2.254;2023-10-31T09:50:46;14.40;74.69
75961;SHT30;64644;48.914;2.254;2023-10-31T09:53:11;14.40;74.47
75961;SHT30;64644;48.914;2.254;2023-10-31T09:55:38;14.44;74.45
75961;SHT30;64644;48.914;2.254;2023-10-31T09:58:03;14.49;74.41
75961;SHT30;64644;48.914;2.254;2023-10-31T10:00:29;14.52;74.33
75961;SHT30;64644;48.914;2.254;2023-10-31T10:02:54;14.55;74.14
75961;SHT30;64644;48.914;2.254;2023-10-31T10:05:20;14.55;73.94
75961;SHT30;64644;48.914;2.254;2023-10-31T10:07:47;14.58;73.89
75961;SHT30;64644;48.914;2.254;2023-10-31T10:10:12;14.71;73.87
75961;SHT30;64644;48.914;2.254;2023-10-31T10:12:38;14.80;73.80
75961;SHT30;64644;48.914;2.254;2023-10-31T10:15:06;14.85;73.51
75961;SHT30;64644;48.914;2.254;2023-10-31T10:17:32;14.99;73.37
75961;SHT30;64644;48.914;2.254;2023-10-31T10:20:08;15.07;73.11
75961;SHT30;64644;48.914;2.254;2023-10-31T10:22:39;15.07;72.94
75961;SHT30;64644;48.914;2.254;2023-10-31T10:25:07;15.19;72.94
75961;SHT30;64644;48.914;2.254;2023-10-31T10:27:33;15.34;72.92
75961;SHT30;64644;48.914;2.254;2023-10-31T10:29:58;15.55;72.80
75961;SHT30;64644;48.914;2.254;2023-10-31T10:32:24;15.72;72.39
75961;SHT30;64644;48.914;2.254;2023-10-31T10:34:49;15.82;72.14
75961;SHT30;64644;48.914;2.254;2023-10-31T10:37:16;15.97;71.98
75961;SHT30;64644;48.914;2.254;2023-10-31T10:39:47;15.97;71.73
75961;SHT30;64644;48.914;2.254;2023-10-31T10:42:17;15.87;71.38
75961;SHT30;64644;48.914;2.254;2023-10-31T10:44:44;15.83;71.42
75961;SHT30;64644;48.914;2.254;2023-10-31T10:47:12;15.78;71.50
75961;SHT30;64644;48.914;2.254;2023-10-31T10:49:41;15.75;71.50
75961;SHT30;64644;48.914;2.254;2023-10-31T10:52:22;15.75;71.49
75961;SHT30;64644;48.914;2.254;2023-10-31T10:54:57;15.76;71.53
75961;SHT30;64644;48.914;2.254;2023-10-31T10:57:32;15.81;71.63
75961;SHT30;64644;48.914;2.254;2023-10-31T11:00:03;15.78;71.49
75961;SHT30;64644;48.914;2.254;2023-10-31T11:02:30;15.83;71.28
75961;SHT30;64644;48.914;2.254;2023-10-31T11:04:56;15.82;71.12
75961;SHT30;64644;48.914;2.254;2023-10-31T11:07:22;15.82;71.08
75961;SHT30;64644;48.914;2.254;2023-10-31T11:09:49;15.79;71.18
75961;SHT30;64644;48.914;2.254;2023-10-31T11:12:15;15.81;71.27
75961;SHT30;64644;48.914;2.254;2023-10-31T11:14:45;15.78;71.15
75961;SHT30;64644;48.914;2.254;2023-10-31T11:17:31;15.79;71.23
75961;SHT30;64644;48.914;2.254;2023-10-31T11:20:00;15.79;71.20
75961;SHT30;64644;48.914;2.254;2023-10-31T11:22:25;15.75;71.13
75961;SHT30;64644;48.914;2.254;2023-10-31T11:24:51;15.70;71.00
75961;SHT30;64644;48.914;2.254;2023-10-31T11:27:17;15.62;70.84
75961;SHT30;64644;48.914;2.254;2023-10-31T11:29:43;15.59;70.89
75961;SHT30;64644;48.914;2.254;2023-10-31T11:32:10;15.61;71.02
75961;SHT30;64644;48.914;2.254;2023-10-31T11:34:38;15.57;70.99
75961;SHT30;64644;48.914;2.254;2023-10-31T11:37:24;15.58;71.11
75961;SHT30;64644;48.914;2.254;2023-10-31T11:42:40;15.59;71.15
75961;SHT30;64644;48.914;2.254;2023-10-31T11:45:07;15.62;71.25
75961;SHT30;64644;48.914;2.254;2023-10-31T11:47:49;15.69;71.18
75961;SHT30;64644;48.914;2.254;2023-10-31T11:50:16;15.79;71.15
75961;SHT30;64644;48.914;2.254;2023-10-31T11:52:41;15.93;71.01
75961;SHT30;64644;48.914;2.254;2023-10-31T11:55:11;16.06;70.83
75961;SHT30;64644;48.914;2.254;2023-10-31T11:57:37;16.21;70.49
75961;SHT30;64644;48.914;2.254;2023-10-31T12:00:06;16.28;70.39
75961;SHT30;64644;48.914;2.254;2023-10-31T12:02:33;16.41;70.22
75961;SHT30;64644;48.914;2.254;2023-10-31T12:05:13;16.52;69.95
75961;SHT30;64644;48.914;2.254;2023-10-31T12:07:45;16.73;69.94
75961;SHT30;64644;48.914;2.254;2023-10-31T12:10:12;16.82;69.68
75961;SHT30;64644;48.914;2.254;2023-10-31T12:12:37;16.92;69.40
75961;SHT30;64644;48.914;2.254;2023-10-31T12:15:07;17.06;69.15
75961;SHT30;64644;48.914;2.254;2023-10-31T12:17:33;17.16;68.78
75961;SHT30;64644;48.914;2.254;2023-10-31T12:20:03;17.10;68.53
75961;SHT30;64644;48.914;2.254;2023-10-31T12:22:30;17.10;68.49
75961;SHT30;64644;48.914;2.254;2023-10-31T12:25:06;17.07;68.31
75961;SHT30;64644;48.914;2.254;2023-10-31T12:27:50;17.00;68.06
75961;SHT30;64644;48.914;2.254;2023-10-31T12:30:17;16.94;67.98
75961;SHT30;64644;48.914;2.254;2023-10-31T12:32:44;16.92;67.92
75961;SHT30;64644;48.914;2.254;2023-10-31T12:35:20;16.89;67.88
75961;SHT30;64644;48.914;2.254;2023-10-31T12:37:48;16.93;68.07
75961;SHT30;64644;48.914;2.254;2023-10-31T12:40:16;17.04;68.19
75961;SHT30;64644;48.914;2.254;2023-10-31T12:42:43;17.10;67.89
75961;SHT30;64644;48.914;2.254;2023-10-31T12:45:09;17.16;67.80
75961;SHT30;64644;48.914;2.254;2023-10-31T12:47:35;17.17;67.62
75961;SHT30;64644;48.914;2.254;2023-10-31T12:50:08;17.20;67.52
75961;SHT30;64644;48.914;2.254;2023-10-31T12:52:51;17.32;67.53
75961;SHT30;64644;48.914;2.254;2023-10-31T12:55:19;17.30;67.41
75961;SHT30;64644;48.914;2.254;2023-10-31T12:57:44;17.24;67.36
75961;SHT30;64644;48.914;2.254;2023-10-31T13:00:12;17.21;67.19
75961;SHT30;64644;48.914;2.254;2023-10-31T13:02:41;17.20;67.10
75961;SHT30;64644;48.914;2.254;2023-10-31T13:05:13;17.18;67.02
75961;SHT30;64644;48.914;2.254;2023-10-31T13:07:40;17.23;66.85
75961;SHT30;64644;48.914;2.254;2023-10-31T13:10:07;17.23;66.63
75961;SHT30;64644;48.914;2.254;2023-10-31T13:12:34;17.23;66.23
75961;SHT30;64644;48.914;2.254;2023-10-31T13:15:00;17.31;66.40
75961;SHT30;64644;48.914;2.254;2023-10-31T13:17:26;17.30;66.26
75961;SHT30;64644;48.914;2.254;2023-10-31T13:19:51;17.27;66.19
75961;SHT30;64644;48.914;2.254;2023-10-31T13:22:17;17.23;66.24
75961;SHT30;64644;48.914;2.254;2023-10-31T13:24:42;17.16;66.08
75961;SHT30;64644;48.914;2.254;2023-10-31T13:27:07;17.11;65.71
75961;SHT30;64644;48.914;2.254;2023-10-31T13:29:33;17.03;65.74
75961;SHT30;64644;48.914;2.254;2023-10-31T13:31:59;17.00;65.73
75961;SHT30;64644;48.914;2.254;2023-10-31T13:34:24;17.02;65.81
75961;SHT30;64644;48.914;2.254;2023-10-31T13:36:49;16.99;65.84
75961;SHT30;64644;48.914;2.254;2023-10-31T13:39:15;17.09;66.11
75961;SHT30;64644;48.914;2.254;2023-10-31T13:41:40;17.11;65.86
75961;SHT30;64644;48.914;2.254;2023-10-31T13:44:06;17.09;65.29
75961;SHT30;64644;48.914;2.254;2023-10-31T13:46:31;17.09;65.17
75961;SHT30;64644;48.914;2.254;2023-10-31T13:48:56;17.07;65.12
75961;SHT30;64644;48.914;2.254;2023-10-31T13:51:22;17.03;64.70
75961;SHT30;64644;48.914;2.254;2023-10-31T13:53:47;17.00;64.73
75961;SHT30;64644;48.914;2.254;2023-10-31T13:56:15;16.99;64.83
75961;SHT30;64644;48.914;2.254;2023-10-31T13:58:40;17.03;65.19
75961;SHT30;64644;48.914;2.254;2023-10-31T14:01:06;17.02;65.06
75961;SHT30;64644;48.914;2.254;2023-10-31T14:03:31;16.99;65.09
75961;SHT30;64644;48.914;2.254;2023-10-31T14:06:06;16.97;65.11
75961;SHT30;64644;48.914;2.254;2023-10-31T14:08:31;16.97;65.07
75961;SHT30;64644;48.914;2.254;2023-10-31T14:10:57;16.96;64.93
75961;SHT30;64644;48.914;2.254;2023-10-31T14:13:22;16.90;64.98
75961;SHT30;64644;48.914;2.254;2023-10-31T14:15:49;16.90;65.19
75961;SHT30;64644;48.914;2.254;2023-10-31T14:18:14;16.87;65.35
75961;SHT30;64644;48.914;2.254;2023-10-31T14:20:40;16.89;65.51
75961;SHT30;64644;48.914;2.254;2023-10-31T14:23:06;16.90;65.67
75961;SHT30;64644;48.914;2.254;2023-10-31T14:25:31;16.94;65.70
75961;SHT30;64644;48.914;2.254;2023-10-31T14:27:57;16.89;65.75
75961;SHT30;64644;48.914;2.254;2023-10-31T14:30:22;16.90;65.80
75961;SHT30;64644;48.914;2.254;2023-10-31T14:32:47;16.92;65.86
75961;SHT30;64644;48.914;2.254;2023-10-31T14:35:13;16.94;65.93
75961;SHT30;64644;48.914;2.254;2023-10-31T14:37:38;16.94;65.92
75961;SHT30;64644;48.914;2.254;2023-10-31T14:40:04;16.94;65.99
75961;SHT30;64644;48.914;2.254;2023-10-31T14:42:29;16.92;66.07
75961;SHT30;64644;48.914;2.254;2023-10-31T14:44:55;16.92;66.02
75961;SHT30;64644;48.914;2.254;2023-10-31T14:47:22;16.90;66.20
75961;SHT30;64644;48.914;2.254;2023-10-31T14:49:47;16.92;66.28
75961;SHT30;64644;48.914;2.254;2023-10-31T14:52:15;16.93;66.38
75961;SHT30;64644;48.914;2.254;2023-10-31T14:54:40;16.93;66.31
75961;SHT30;64644;48.914;2.254;2023-10-31T14:57:07;16.97;66.32
75961;SHT30;64644;48.914;2.254;2023-10-31T14:59:32;16.97;66.37
75961;SHT30;64644;48.914;2.254;2023-10-31T15:01:58;16.96;66.27
75961;SHT30;64644;48.914;2.254;2023-10-31T15:04:23;16.97;66.38
75961;SHT30;64644;48.914;2.254;2023-10-31T15:06:48;16.96;66.47
75961;SHT30;64644;48.914;2.254;2023-10-31T15:09:14;17.00;66.45
75961;SHT30;64644;48.914;2.254;2023-10-31T15:11:40;17.03;66.55
75961;SHT30;64644;48.914;2.254;2023-10-31T15:14:06;17.00;66.51
75961;SHT30;64644;48.914;2.254;2023-10-31T15:16:31;17.00;66.45
75961;SHT30;64644;48.914;2.254;2023-10-31T15:18:58;16.97;66.42
75961;SHT30;64644;48.914;2.254;2023-10-31T15:21:23;16.96;66.36
75961;SHT30;64644;48.914;2.254;2023-10-31T15:23:49;16.99;66.40
75961;SHT30;64644;48.914;2.254;2023-10-31T15:26:14;16.94;66.37